Time;durP1;ratioP1;P1;durP2;ratioP2;P2;SDS_P1;SDS_P2;PMS_P1;PMS_P2;Temp;Humidity;BMP_temperature;BMP_pressure;BME280_temperature;BME280_humidity;BME280_pressure;Samples;Min_cycle;Max_cycle;Signal;HPM_P1;HPM_P2
2023/06/24 00:02:07;;;;;;;8.35;5.18;;;;;;;;;;5058036;28;20055;-71
2023/06/24 00:04:32;;;;;;;6.95;5.82;;;15.90;99.90;;;;;;5055603;28;20040;-71
2023/06/24 00:06:59;;;;;;;6.60;5.65;;;15.80;99.90;;;;;;5062651;28;20045;-71
2023/06/24 00:09:28;;;;;;;9.18;5.07;;;15.60;99.90;;;;;;5058751;28;20093;-71
2023/06/24 00:11:55;;;;;;;5.22;4.47;;;;;;;;;;5059560;28;20154;-71
2023/06/24 00:14:23;;;;;;;7.97;5.30;;;;;;;;;;5056295;28;20044;-71
2023/06/24 00:16:52;;;;;;;6.30;5.25;;;15.30;99.90;;;;;;5057376;28;20067;-71
2023/06/24 00:19:23;;;;;;;5.97;5.13;;;15.40;99.90;;;;;;5053696;28;20052;-71
2023/06/24 00:21:51;;;;;;;6.88;5.15;;;;;;;;;;5068037;28;20047;-71
2023/06/24 00:24:17;;;;;;;7.35;5.57;;;15.30;99.90;;;;;;5059347;28;20490;-71
2023/06/24 00:26:43;;;;;;;7.75;5.75;;;15.30;99.90;;;;;;5065428;28;20541;-71
2023/06/24 00:29:09;;;;;;;9.45;5.53;;;;;;;;;;5068078;28;20149;-71
2023/06/24 00:31:35;;;;;;;8.38;5.63;;;;;;;;;;5062751;28;20044;-70
2023/06/24 00:34:01;;;;;;;9.00;5.63;;;;;;;;;;5068080;28;20044;-71
2023/06/24 00:36:26;;;;;;;8.13;5.45;;;15.20;99.90;;;;;;5068198;28;20056;-70
2023/06/24 00:38:52;;;;;;;6.22;5.57;;;;;;;;;;5067878;28;20127;-70
2023/06/24 00:41:19;;;;;;;6.63;5.68;;;15.00;99.90;;;;;;5055972;28;20048;-70
2023/06/24 00:43:45;;;;;;;7.05;5.95;;;15.10;99.90;;;;;;5056488;28;20044;-71
2023/06/24 00:46:12;;;;;;;7.95;5.60;;;;;;;;;;5067576;28;20463;-71
2023/06/24 00:48:38;;;;;;;7.15;4.80;;;;;;;;;;5059960;28;20482;-71
2023/06/24 00:51:04;;;;;;;8.30;5.63;;;;;;;;;;5060548;28;20047;-71
2023/06/24 00:53:30;;;;;;;7.90;5.82;;;;;;;;;;5067797;28;20068;-71
2023/06/24 00:56:01;;;;;;;10.00;6.65;;;15.00;99.90;;;;;;5054870;28;20040;-70
2023/06/24 00:58:30;;;;;;;7.18;6.22;;;14.90;99.90;;;;;;5058054;28;20093;-71
2023/06/24 01:00:57;;;;;;;7.97;5.55;;;14.90;99.90;;;;;;5053874;28;20119;-71
2023/06/24 01:03:27;;;;;;;11.38;6.40;;;15.00;99.90;;;;;;5054514;28;20474;-71
2023/06/24 01:05:54;;;;;;;8.35;5.72;;;15.20;99.90;;;;;;5058786;28;20056;-71
2023/06/24 01:08:22;;;;;;;7.35;6.03;;;;;;;;;;5025258;28;20746;-71
2023/06/24 01:10:49;;;;;;;8.40;5.82;;;;;;;;;;5056578;28;20052;-72
2023/06/24 01:13:15;;;;;;;11.90;6.25;;;14.90;99.90;;;;;;5067152;28;20044;-71
2023/06/24 01:15:41;;;;;;;6.32;5.25;;;14.80;99.90;;;;;;5057350;28;20745;-72
2023/06/24 01:18:29;;;;;;;7.50;4.82;;;14.80;99.90;;;;;;5067159;28;20040;-71
2023/06/24 01:21:08;;;;;;;7.90;5.78;;;14.80;99.90;;;;;;5056198;28;20044;-71
2023/06/24 01:24:17;;;;;;;9.07;5.45;;;14.50;99.90;;;;;;5058249;28;20064;-71
2023/06/24 01:27:04;;;;;;;6.72;6.00;;;14.70;99.90;;;;;;5009750;28;20525;-70
2023/06/24 01:29:54;;;;;;;6.70;5.88;;;14.70;99.90;;;;;;5058085;28;20040;-71
2023/06/24 01:32:23;;;;;;;7.10;5.38;;;14.50;99.90;;;;;;5051038;28;20463;-71
2023/06/24 01:34:55;;;;;;;7.32;6.47;;;14.50;99.90;;;;;;5056125;28;20087;-71
2023/06/24 01:37:35;;;;;;;9.40;6.45;;;14.70;99.90;;;;;;5053968;28;20438;-71
2023/06/24 01:40:18;;;;;;;8.95;6.00;;;14.80;99.90;;;;;;5060694;28;20048;-71
2023/06/24 01:42:46;;;;;;;9.13;6.65;;;14.70;99.90;;;;;;5066391;28;20098;-71
2023/06/24 01:45:26;;;;;;;9.80;6.65;;;14.80;99.90;;;;;;5061882;28;20080;-71
2023/06/24 01:48:01;;;;;;;11.98;7.93;;;15.90;99.90;;;;;;5056769;28;20051;-71
2023/06/24 01:50:31;;;;;;;8.98;7.18;;;14.70;99.90;;;;;;5057843;28;20044;-71
2023/06/24 01:52:57;;;;;;;11.45;7.75;;;14.50;99.90;;;;;;5060081;28;20044;-71
2023/06/24 01:55:26;;;;;;;12.38;7.78;;;14.50;99.90;;;;;;5057257;28;20056;-70
2023/06/24 01:57:54;;;;;;;14.32;8.48;;;14.80;99.90;;;;;;5061009;28;20040;-71
2023/06/24 02:00:22;;;;;;;10.23;8.43;;;15.00;99.90;;;;;;5061970;28;20048;-71
2023/06/24 02:02:49;;;;;;;14.18;8.90;;;15.10;99.90;;;;;;5066393;28;20051;-71
2023/06/24 02:05:17;;;;;;;13.63;10.25;;;15.10;99.90;;;;;;5056869;28;20037;-71
2023/06/24 02:07:44;;;;;;;15.13;9.70;;;15.10;99.90;;;;;;5050943;28;20048;-71
2023/06/24 02:10:11;;;;;;;14.18;9.95;;;15.20;99.90;;;;;;5066140;28;20098;-71
2023/06/24 02:12:38;;;;;;;10.93;8.77;;;15.20;99.90;;;;;;5054718;28;20048;-70
2023/06/24 02:15:06;;;;;;;13.75;9.98;;;15.10;99.90;;;;;;5034627;28;20052;-70
2023/06/24 02:17:32;;;;;;;15.05;9.18;;;;;;;;;;5057187;28;20052;-71
2023/06/24 02:19:59;;;;;;;17.40;10.18;;;15.10;99.90;;;;;;5059119;28;20126;-70
2023/06/24 02:22:25;;;;;;;14.07;9.27;;;15.30;99.90;;;;;;5058837;28;20041;-71
2023/06/24 02:24:52;;;;;;;14.50;9.68;;;15.00;99.90;;;;;;5058978;28;20044;-71
2023/06/24 02:27:19;;;;;;;12.23;10.48;;;15.30;99.90;;;;;;5066394;28;20758;-71
2023/06/24 02:29:46;;;;;;;13.90;9.88;;;15.20;99.90;;;;;;5065847;28;20032;-71
2023/06/24 02:32:12;;;;;;;13.32;9.80;;;;;;;;;;5050525;28;20179;-71
2023/06/24 02:34:38;;;;;;;14.32;10.23;;;;;;;;;;5066203;28;20047;-71
2023/06/24 02:37:04;;;;;;;14.63;9.77;;;;;;;;;;5065478;28;20797;-71
2023/06/24 02:39:30;;;;;;;11.60;9.60;;;15.20;99.90;;;;;;5056134;28;20075;-71
2023/06/24 02:41:56;;;;;;;14.23;10.68;;;;;;;;;;5055185;28;20036;-71
2023/06/24 02:44:22;;;;;;;14.63;9.80;;;;;;;;;;5053502;28;20719;-71
2023/06/24 02:46:50;;;;;;;13.40;9.75;;;15.20;99.90;;;;;;5066240;28;20036;-71
2023/06/24 02:49:17;;;;;;;12.05;9.63;;;15.00;99.90;;;;;;5065550;28;20494;-70
2023/06/24 02:51:46;;;;;;;39.13;12.48;;;14.80;99.90;;;;;;5051647;28;20071;-70
2023/06/24 02:54:14;;;;;;;13.10;9.20;;;14.70;99.90;;;;;;5053408;28;20045;-71
2023/06/24 02:56:41;;;;;;;15.63;10.30;;;14.90;99.90;;;;;;5057904;28;20057;-70
2023/06/24 02:59:08;;;;;;;15.70;10.02;;;;;;;;;;5058300;28;20609;-71
2023/06/24 03:01:38;;;;;;;13.18;9.80;;;14.80;99.90;;;;;;5060182;28;20418;-71
2023/06/24 03:04:04;;;;;;;14.15;10.30;;;;;;;;;;5059553;28;20649;-71
2023/06/24 03:10:10;;;;;;;16.77;11.73;;;;;;;;;;5066122;28;20494;-70
2023/06/24 03:12:36;;;;;;;12.63;10.02;;;14.80;99.90;;;;;;5054217;28;20040;-70
2023/06/24 03:15:01;;;;;;;14.25;10.50;;;14.70;99.90;;;;;;5053245;28;20067;-71
2023/06/24 03:17:27;;;;;;;17.02;11.30;;;;;;;;;;5054207;28;20047;-70
2023/06/24 03:19:53;;;;;;;14.23;11.00;;;;;;;;;;5053309;28;20090;-71
2023/06/24 03:22:19;;;;;;;16.77;11.13;;;14.80;99.90;;;;;;5029502;28;20051;-70
2023/06/24 03:24:45;;;;;;;16.85;11.90;;;;;;;;;;5057429;28;20059;-70
2023/06/24 03:27:12;;;;;;;17.08;11.60;;;;;;;;;;5061343;28;20033;-70
2023/06/24 03:29:38;;;;;;;16.33;11.98;;;;;;;;;;5058168;28;20059;-70
2023/06/24 03:32:04;;;;;;;18.85;11.57;;;15.20;99.90;;;;;;5065735;28;20041;-70
2023/06/24 03:34:30;;;;;;;19.65;12.50;;;;;;;;;;5051716;28;20650;-70
2023/06/24 03:36:56;;;;;;;17.55;11.77;;;;;;;;;;5053907;28;20407;-70
2023/06/24 03:39:22;;;;;;;18.00;11.52;;;;;;;;;;5039568;28;20040;-70
2023/06/24 03:41:48;;;;;;;17.40;11.40;;;;;;;;;;5049531;28;20049;-70
2023/06/24 03:44:14;;;;;;;18.13;12.57;;;;;;;;;;5067756;28;20044;-70
2023/06/24 03:46:40;;;;;;;20.83;13.05;;;;;;;;;;5058168;28;20509;-72
2023/06/24 03:49:06;;;;;;;19.20;12.93;;;15.20;99.90;;;;;;5060563;28;20044;-72
2023/06/24 03:51:32;;;;;;;18.67;12.75;;;15.10;99.90;;;;;;5059631;28;20128;-73
2023/06/24 03:53:58;;;;;;;18.98;13.18;;;;;;;;;;5069790;28;20388;-73
2023/06/24 03:56:24;;;;;;;18.50;13.10;;;;;;;;;;5054552;28;20123;-73
2023/06/24 03:58:49;;;;;;;19.70;13.20;;;15.00;99.90;;;;;;5056668;28;20052;-73
2023/06/24 04:01:18;;;;;;;16.65;13.05;;;;;;;;;;5061533;28;20044;-73
2023/06/24 04:03:44;;;;;;;20.00;13.68;;;;;;;;;;5060284;28;20048;-73
2023/06/24 04:06:10;;;;;;;18.35;13.40;;;;;;;;;;5058610;28;20044;-73
2023/06/24 04:08:39;;;;;;;20.02;13.68;;;;;;;;;;5068689;28;21354;-73
2023/06/24 04:11:06;;;;;;;19.30;12.38;;;;;;;;;;5052321;28;20052;-73
2023/06/24 04:13:35;;;;;;;19.20;13.32;;;15.50;99.90;;;;;;5055074;28;20048;-73
2023/06/24 04:16:01;;;;;;;21.42;15.25;;;;;;;;;;5055986;28;20672;-73
2023/06/24 04:18:27;;;;;;;21.48;13.73;;;;;;;;;;5064502;28;20486;-73
2023/06/24 04:20:53;;;;;;;19.13;13.05;;;15.50;99.90;;;;;;5044890;28;20046;-73
2023/06/24 04:23:19;;;;;;;20.77;14.80;;;;;;;;;;5068890;28;20048;-73
2023/06/24 04:25:45;;;;;;;21.27;13.48;;;15.50;99.90;;;;;;5057636;28;20090;-73
2023/06/24 04:28:11;;;;;;;23.92;14.48;;;;;;;;;;5060022;28;20110;-73
2023/06/24 04:30:40;;;;;;;19.27;14.05;;;15.60;99.90;;;;;;5046281;28;20131;-72
2023/06/24 04:33:06;;;;;;;21.90;13.43;;;;;;;;;;5054553;28;20455;-72
2023/06/24 04:35:32;;;;;;;19.17;13.80;;;;;;;;;;5055009;28;20052;-73
2023/06/24 04:37:58;;;;;;;21.05;13.70;;;;;;;;;;5054775;28;20154;-73
2023/06/24 04:40:24;;;;;;;19.25;13.65;;;;;;;;;;5056688;28;20155;-73
2023/06/24 04:42:50;;;;;;;23.30;14.13;;;15.60;99.90;;;;;;5056232;28;20056;-73
2023/06/24 04:45:15;;;;;;;19.58;15.15;;;15.70;99.90;;;;;;5067965;28;20832;-73
2023/06/24 04:47:41;;;;;;;17.13;12.77;;;;;;;;;;5044989;28;20044;-73
2023/06/24 04:50:11;;;;;;;20.05;13.80;;;;;;;;;;5057468;28;20179;-73
2023/06/24 04:52:37;;;;;;;17.92;13.20;;;;;;;;;;5058146;28;20802;-73
2023/06/24 04:55:03;;;;;;;19.08;12.95;;;;;;;;;;5066259;28;20050;-73
2023/06/24 04:57:31;;;;;;;18.35;12.80;;;16.40;99.90;;;;;;5067679;28;20855;-73
2023/06/24 04:59:57;;;;;;;17.25;14.05;;;;;;;;;;5024036;28;20044;-73
2023/06/24 05:02:23;;;;;;;18.27;12.30;;;;;;;;;;5057392;28;20047;-73
2023/06/24 05:04:49;;;;;;;18.85;12.32;;;16.80;99.90;;;;;;5060170;28;20041;-73
2023/06/24 05:07:15;;;;;;;17.73;12.15;;;17.40;99.90;;;;;;5050751;28;20403;-73
2023/06/24 05:09:41;;;;;;;13.95;10.55;;;17.80;99.90;;;;;;5059809;28;20040;-73
2023/06/24 05:15:48;;;;;;;14.18;10.95;;;;;;;;;;5069050;28;20198;-73
2023/06/24 05:18:13;;;;;;;14.75;10.05;;;19.00;99.90;;;;;;5051363;28;20472;-73
2023/06/24 05:20:39;;;;;;;16.77;10.77;;;;;;;;;;5052704;28;20056;-73
2023/06/24 05:23:05;;;;;;;16.75;11.48;;;;;;;;;;5059753;28;20052;-73
2023/06/24 05:25:32;;;;;;;15.40;10.75;;;19.20;99.90;;;;;;5025962;28;20037;-73
2023/06/24 05:27:58;;;;;;;14.68;10.57;;;;;;;;;;5051905;28;20524;-73
2023/06/24 05:30:23;;;;;;;14.00;10.30;;;19.70;99.90;;;;;;5060901;28;20051;-72
2023/06/24 05:32:49;;;;;;;13.00;9.35;;;20.00;99.90;;;;;;5059971;28;20048;-73
2023/06/24 05:35:15;;;;;;;15.55;9.70;;;;;;;;;;5063772;28;20060;-73
2023/06/24 05:37:41;;;;;;;13.63;9.93;;;20.70;99.90;;;;;;5062755;28;20520;-73
2023/06/24 05:40:07;;;;;;;13.82;10.18;;;20.90;99.90;;;;;;5064850;28;20059;-73
2023/06/24 05:42:33;;;;;;;11.18;9.38;;;;;;;;;;5074059;28;20055;-73
2023/06/24 05:44:59;;;;;;;11.77;9.25;;;21.50;99.90;;;;;;5048223;28;20040;-73
2023/06/24 05:47:25;;;;;;;13.00;10.45;;;21.70;99.90;;;;;;5061788;28;20048;-73
2023/06/24 05:49:50;;;;;;;14.52;9.57;;;22.00;99.90;;;;;;5058522;28;20048;-73
2023/06/24 05:52:16;;;;;;;15.10;10.32;;;23.00;99.90;;;;;;5041549;28;20040;-73
2023/06/24 05:54:41;;;;;;;13.38;9.27;;;22.30;99.90;;;;;;5061433;28;20031;-73
2023/06/24 05:57:07;;;;;;;14.00;9.27;;;22.60;99.90;;;;;;5059605;28;21074;-73
2023/06/24 05:59:33;;;;;;;13.57;9.05;;;25.30;99.90;;;;;;5060635;28;20049;-73
2023/06/24 06:02:01;;;;;;;9.98;8.90;;;23.50;99.90;;;;;;5060856;28;20048;-73
2023/06/24 06:04:27;;;;;;;11.27;9.43;;;24.10;99.90;;;;;;5054729;28;20070;-73
2023/06/24 06:06:53;;;;;;;13.70;9.13;;;24.40;99.90;;;;;;5057655;28;20040;-73
2023/06/24 06:09:18;;;;;;;12.35;9.40;;;24.70;99.90;;;;;;5056319;28;20093;-74
2023/06/24 06:11:44;;;;;;;12.45;9.43;;;26.40;99.90;;;;;;5051223;28;20136;-74
2023/06/24 06:14:09;;;;;;;13.52;10.00;;;25.30;99.90;;;;;;5053099;28;20044;-73
2023/06/24 06:16:35;;;;;;;13.65;9.75;;;25.10;99.90;;;;;;5057868;28;20048;-74
2023/06/24 06:19:01;;;;;;;11.32;9.45;;;26.70;99.90;;;;;;5042772;28;20049;-73
2023/06/24 06:21:26;;;;;;;14.07;8.90;;;26.20;99.90;;;;;;5055638;28;20084;-74
2023/06/24 06:23:52;;;;;;;15.68;8.20;;;26.60;99.90;;;;;;5059672;28;20042;-73
2023/06/24 06:26:18;;;;;;;9.30;7.93;;;26.50;99.90;;;;;;5066733;28;20076;-74
2023/06/24 06:28:43;;;;;;;12.82;8.73;;;28.50;99.90;;;;;;5053557;28;20044;-73
2023/06/24 06:31:09;;;;;;;9.30;6.90;;;27.60;99.90;;;;;;5052669;28;20059;-73
2023/06/24 06:33:34;;;;;;;9.05;6.07;;;27.80;99.90;;;;;;5056170;28;20044;-74
2023/06/24 06:36:00;;;;;;;10.95;5.85;;;28.40;99.90;;;;;;5029876;28;20065;-74
2023/06/24 06:38:26;;;;;;;11.38;6.43;;;29.30;99.90;;;;;;5056507;28;20079;-73
2023/06/24 06:40:52;;;;;;;10.15;6.43;;;28.10;99.90;;;;;;5034795;28;20569;-74
2023/06/24 06:43:18;;;;;;;9.50;5.75;;;26.70;99.90;;;;;;5051771;28;20131;-74
2023/06/24 06:45:51;;;;;;;9.95;7.22;;;25.20;99.90;;;;;;5063478;28;20043;-74
2023/06/24 06:48:21;;;;;;;11.68;6.47;;;24.60;99.90;;;;;;5029582;28;20052;-75
2023/06/24 06:50:49;;;;;;;9.55;7.28;;;23.90;99.90;;;;;;5043602;28;20076;-74
2023/06/24 06:53:59;;;;;;;9.80;7.32;;;23.60;99.90;;;;;;4969201;28;20050;-75
2023/06/24 06:56:25;;;;;;;12.48;8.13;;;23.00;99.90;;;;;;4963704;28;20142;-75
2023/06/24 06:58:52;;;;;;;13.85;8.40;;;22.70;99.90;;;;;;4953089;28;20038;-75
2023/06/24 07:01:18;;;;;;;11.52;9.07;;;22.50;99.90;;;;;;4968426;28;20618;-75
2023/06/24 07:03:44;;;;;;;10.85;8.43;;;24.10;99.90;;;;;;4965136;28;20113;-75
2023/06/24 07:06:10;;;;;;;10.98;8.30;;;21.30;99.90;;;;;;4961708;28;20055;-75
2023/06/24 07:08:35;;;;;;;11.70;9.23;;;24.10;99.90;;;;;;4967128;28;20039;-75
2023/06/24 07:11:02;;;;;;;11.13;8.77;;;22.60;99.90;;;;;;4963139;28;20054;-75
2023/06/24 07:13:28;;;;;;;11.68;9.02;;;23.70;99.90;;;;;;4957178;28;20163;-74
2023/06/24 07:15:54;;;;;;;14.27;9.23;;;;;;;;;;4965620;28;20043;-75
2023/06/24 07:18:20;;;;;;;14.05;8.38;;;;;;;;;;4960669;28;20063;-75
2023/06/24 07:20:45;;;;;;;12.55;8.07;;;22.50;99.90;;;;;;4971233;28;20174;-74
2023/06/24 07:23:11;;;;;;;12.82;8.02;;;22.40;99.90;;;;;;4969978;28;20042;-75
2023/06/24 07:25:37;;;;;;;9.35;7.40;;;23.80;99.90;;;;;;4951978;28;20079;-75
2023/06/24 07:28:03;;;;;;;12.40;7.10;;;22.50;99.90;;;;;;4972869;28;20539;-75
2023/06/24 07:30:29;;;;;;;9.38;6.85;;;22.40;99.90;;;;;;4968078;28;20043;-75
2023/06/24 07:32:54;;;;;;;10.07;7.28;;;22.00;99.90;;;;;;4965830;28;20074;-74
2023/06/24 07:35:20;;;;;;;8.30;6.10;;;23.80;99.90;;;;;;4954263;28;20098;-75
2023/06/24 07:37:46;;;;;;;8.57;5.72;;;24.20;99.90;;;;;;4964714;28;20563;-75
2023/06/24 07:40:11;;;;;;;8.32;4.60;;;23.50;99.90;;;;;;4966443;28;20047;-75
2023/06/24 07:42:37;;;;;;;4.70;3.55;;;22.80;99.90;;;;;;4969463;28;20067;-75
2023/06/24 07:45:03;;;;;;;8.38;4.65;;;23.30;99.90;;;;;;5073197;28;20048;-75
2023/06/24 07:47:29;;;;;;;5.57;4.50;;;22.90;99.90;;;;;;5074660;28;20051;-75
2023/06/24 07:49:54;;;;;;;5.57;3.90;;;23.00;99.90;;;;;;5074141;28;20032;-75
2023/06/24 07:52:20;;;;;;;7.07;3.95;;;23.10;99.90;;;;;;5074070;28;20045;-74
2023/06/24 07:54:45;;;;;;;4.90;2.72;;;24.10;99.90;;;;;;5074995;28;20048;-75
2023/06/24 07:57:11;;;;;;;8.93;2.42;;;;;;;;;;5076700;28;20063;-75
2023/06/24 07:59:37;;;;;;;4.03;2.30;;;23.10;99.90;;;;;;5068414;28;20043;-76
2023/06/24 08:02:03;;;;;;;3.97;2.75;;;22.90;99.90;;;;;;5070528;28;20044;-75
2023/06/24 08:04:28;;;;;;;4.85;2.63;;;23.10;99.90;;;;;;5072596;28;20037;-75
2023/06/24 08:06:54;;;;;;;4.25;2.33;;;25.30;99.90;;;;;;5071629;28;20063;-75
2023/06/24 08:09:20;;;;;;;4.43;2.72;;;24.90;99.90;;;;;;5059373;28;20829;-75
2023/06/24 08:11:45;;;;;;;4.20;2.47;;;25.10;99.90;;;;;;5056770;28;20133;-75
2023/06/24 08:14:11;;;;;;;5.75;2.58;;;25.40;99.90;;;;;;5074436;28;20075;-76
2023/06/24 08:16:37;;;;;;;4.60;2.63;;;23.30;99.90;;;;;;5049013;28;20044;-75
2023/06/24 08:19:03;;;;;;;4.32;2.20;;;25.30;99.90;;;;;;5073310;28;20044;-74
2023/06/24 08:21:29;;;;;;;4.93;3.17;;;23.40;99.90;;;;;;5044409;28;20051;-73
2023/06/24 08:23:55;;;;;;;6.28;3.08;;;26.00;99.90;;;;;;5068339;28;20063;-75
2023/06/24 08:26:21;;;;;;;3.95;2.45;;;23.40;99.90;;;;;;5044495;28;20410;-75
2023/06/24 08:28:47;;;;;;;5.88;3.05;;;23.20;99.90;;;;;;5058178;28;20761;-75
2023/06/24 08:31:13;;;;;;;5.70;2.90;;;23.40;99.90;;;;;;5057020;28;20074;-74
2023/06/24 08:33:38;;;;;;;6.53;3.33;;;23.70;99.90;;;;;;5050505;28;20048;-74
2023/06/24 08:36:04;;;;;;;3.58;2.75;;;23.40;99.90;;;;;;5058167;28;20061;-75
2023/06/24 08:38:29;;;;;;;8.93;3.65;;;23.70;99.90;;;;;;5054855;28;20189;-78
2023/06/24 08:40:56;;;;;;;5.20;2.85;;;23.50;99.90;;;;;;5053501;28;20124;-75
2023/06/24 08:43:21;;;;;;;6.05;3.25;;;23.60;99.90;;;;;;5069276;28;20049;-75
2023/06/24 08:45:47;;;;;;;5.20;2.75;;;23.50;99.90;;;;;;5066612;28;20043;-76
2023/06/24 08:48:14;;;;;;;4.28;2.90;;;24.30;99.90;;;;;;5062948;28;20064;-75
2023/06/24 08:50:52;;;;;;;6.90;2.85;;;23.60;99.90;;;;;;5061585;28;20044;-76
2023/06/24 08:53:20;;;;;;;5.00;3.13;;;23.70;99.90;;;;;;5062441;28;20044;-76
2023/06/24 08:55:46;;;;;;;6.10;2.40;;;23.80;99.90;;;;;;5053656;28;20063;-75
2023/06/24 08:58:13;;;;;;;5.05;2.75;;;23.90;99.90;;;;;;5049736;28;20153;-76
2023/06/24 09:00:39;;;;;;;5.70;2.88;;;23.90;99.90;;;;;;5054414;28;20036;-77
2023/06/24 09:03:05;;;;;;;4.70;2.92;;;23.50;99.90;;;;;;5037830;28;20048;-75
2023/06/24 09:05:30;;;;;;;3.72;2.90;;;23.90;99.90;;;;;;5050122;28;20490;-76
2023/06/24 09:07:56;;;;;;;10.43;4.25;;;25.70;99.90;;;;;;5054735;28;20044;-76
2023/06/24 09:10:37;;;;;;;7.80;3.22;;;23.90;99.90;;;;;;5067174;28;20087;-75
2023/06/24 09:13:04;;;;;;;10.45;3.85;;;23.90;99.90;;;;;;5064892;28;20040;-76
2023/06/24 09:15:38;;;;;;;8.25;3.40;;;24.10;99.90;;;;;;5044338;28;20091;-76
2023/06/24 09:18:04;;;;;;;6.53;3.92;;;25.60;99.90;;;;;;5053449;28;20035;-76
2023/06/24 09:20:39;;;;;;;7.80;4.57;;;24.00;99.90;;;;;;5055243;28;20086;-76
2023/06/24 09:23:05;;;;;;;6.10;3.28;;;24.30;99.90;;;;;;5062352;28;20040;-76
2023/06/24 09:25:30;;;;;;;7.30;4.30;;;24.40;99.90;;;;;;5058247;28;20460;-76
2023/06/24 09:28:00;;;;;;;7.05;4.45;;;24.30;99.90;;;;;;5066129;28;20071;-76
2023/06/24 09:30:26;;;;;;;8.38;4.35;;;25.50;99.90;;;;;;5051668;28;20044;-76
2023/06/24 09:32:53;;;;;;;6.75;3.70;;;24.50;99.90;;;;;;5056305;28;20044;-76
2023/06/24 09:35:23;;;;;;;5.25;3.63;;;24.30;99.90;;;;;;5054794;28;20070;-75
2023/06/24 09:37:50;;;;;;;6.00;3.72;;;24.70;99.90;;;;;;5051159;28;20071;-75
2023/06/24 09:40:16;;;;;;;6.82;3.20;;;24.60;99.90;;;;;;5059699;28;20048;-76
2023/06/24 09:42:53;;;;;;;6.47;3.85;;;26.40;99.90;;;;;;5064167;28;20562;-74
2023/06/24 09:45:24;;;;;;;7.30;4.20;;;26.10;99.90;;;;;;5053703;28;20076;-76
2023/06/24 09:47:49;;;;;;;5.88;3.72;;;25.10;99.90;;;;;;5052401;28;20158;-75
2023/06/24 09:50:16;;;;;;;6.55;3.97;;;25.10;99.90;;;;;;5057110;28;20498;-76
2023/06/24 09:52:44;;;;;;;9.80;4.35;;;25.20;99.90;;;;;;5057839;28;20086;-74
2023/06/24 09:55:11;;;;;;;7.72;4.60;;;25.20;99.90;;;;;;5051546;28;20555;-76
2023/06/24 09:57:38;;;;;;;6.25;3.85;;;25.30;99.90;;;;;;5055555;28;20398;-75
2023/06/24 10:00:04;;;;;;;6.00;3.53;;;25.30;99.90;;;;;;5061189;28;20118;-77
2023/06/24 10:02:31;;;;;;;5.57;4.18;;;25.50;99.90;;;;;;5055071;28;20057;-79
2023/06/24 10:04:58;;;;;;;6.47;4.00;;;25.40;99.90;;;;;;5063428;28;20494;-78
2023/06/24 10:07:23;;;;;;;7.47;4.20;;;25.60;99.90;;;;;;5062124;28;20043;-78
2023/06/24 10:09:49;;;;;;;5.93;3.95;;;25.50;99.90;;;;;;5058086;28;20041;-78
2023/06/24 10:12:15;;;;;;;5.43;3.72;;;25.60;99.90;;;;;;5062138;28;20114;-78
2023/06/24 10:14:40;;;;;;;7.50;3.63;;;27.30;99.90;;;;;;5052946;28;20059;-77
2023/06/24 10:17:06;;;;;;;5.85;4.22;;;25.80;99.90;;;;;;5060355;28;20156;-75
2023/06/24 10:19:39;;;;;;;6.90;3.58;;;26.00;99.90;;;;;;5058295;28;20094;-75
2023/06/24 10:22:09;;;;;;;5.55;3.75;;;26.60;99.90;;;;;;5047194;28;20521;-75
2023/06/24 10:24:37;;;;;;;4.95;3.85;;;26.60;99.90;;;;;;5040734;28;20051;-77
2023/06/24 10:27:03;;;;;;;8.25;3.50;;;25.60;99.90;;;;;;5060336;28;20037;-77
2023/06/24 10:29:38;;;;;;;4.38;3.15;;;25.90;99.90;;;;;;5043116;28;20151;-77
2023/06/24 10:32:05;;;;;;;5.05;3.47;;;26.00;99.90;;;;;;5057400;28;20510;-77
2023/06/24 10:34:45;;;;;;;4.90;2.97;;;26.00;99.90;;;;;;5054673;28;20119;-76
2023/06/24 10:37:17;;;;;;;8.15;4.28;;;26.30;99.90;;;;;;5053714;28;20051;-77
2023/06/24 10:39:56;;;;;;;8.38;3.13;;;26.50;99.90;;;;;;5024654;28;20052;-77
2023/06/24 10:42:46;;;;;;;4.68;3.17;;;26.20;99.90;;;;;;5030734;28;20123;-77
2023/06/24 10:45:12;;;;;;;5.72;2.40;;;26.20;99.90;;;;;;5062553;28;20052;-76
2023/06/24 10:47:42;;;;;;;7.65;3.22;;;28.00;99.90;;;;;;5046110;28;20598;-76
2023/06/24 10:50:10;;;;;;;5.22;3.80;;;26.50;99.90;;;;;;5056666;28;20124;-77
2023/06/24 10:52:46;;;;;;;7.05;3.10;;;28.90;99.90;;;;;;5055600;28;20045;-76
2023/06/24 10:55:16;;;;;;;6.72;3.15;;;26.80;99.90;;;;;;5056312;28;20041;-76
2023/06/24 10:57:43;;;;;;;6.28;2.90;;;28.10;99.90;;;;;;5054913;28;20070;-76
2023/06/24 11:00:09;;;;;;;7.57;3.40;;;26.90;99.90;;;;;;5066309;28;20187;-75
2023/06/24 11:02:36;;;;;;;7.32;3.67;;;26.70;99.90;;;;;;5067072;28;20044;-76
2023/06/24 11:05:04;;;;;;;5.57;3.35;;;27.90;99.90;;;;;;5058476;28;20055;-76
2023/06/24 11:07:34;;;;;;;5.72;3.13;;;27.10;99.90;;;;;;5057545;28;20055;-76
2023/06/24 11:10:04;;;;;;;7.00;3.17;;;28.70;99.90;;;;;;5067400;28;20692;-77
2023/06/24 11:12:35;;;;;;;5.47;3.35;;;27.00;99.90;;;;;;5062100;28;20057;-76
2023/06/24 11:15:06;;;;;;;4.38;2.53;;;27.10;99.90;;;;;;5067915;28;20187;-76
2023/06/24 11:17:33;;;;;;;6.25;2.47;;;27.00;99.90;;;;;;5053897;28;20044;-77
2023/06/24 11:19:59;;;;;;;6.57;2.75;;;27.30;99.90;;;;;;5071132;28;20086;-76
2023/06/24 11:22:26;;;;;;;6.55;3.50;;;26.90;99.90;;;;;;5050857;28;20045;-77
2023/06/24 11:24:52;;;;;;;4.22;2.78;;;28.70;99.90;;;;;;5065355;28;20068;-78
2023/06/24 11:27:29;;;;;;;8.75;3.80;;;27.30;99.90;;;;;;5043015;28;20485;-77
2023/06/24 11:30:02;;;;;;;5.03;3.45;;;27.50;99.90;;;;;;5062596;28;20048;-76
2023/06/24 11:32:41;;;;;;;8.38;3.13;;;27.20;99.90;;;;;;5064165;28;20048;-77
2023/06/24 11:35:09;;;;;;;5.95;2.90;;;27.40;99.90;;;;;;5056643;28;20496;-76
2023/06/24 11:37:35;;;;;;;5.43;3.17;;;27.30;99.90;;;;;;5065375;28;20079;-76
2023/06/24 11:40:10;;;;;;;4.82;2.45;;;26.90;99.90;;;;;;5061018;28;20040;-76
2023/06/24 11:42:38;;;;;;;6.25;2.85;;;27.00;99.90;;;;;;5068452;28;20040;-77
2023/06/24 11:45:09;;;;;;;5.10;3.22;;;28.80;99.90;;;;;;5070265;28;20094;-76
2023/06/24 11:47:35;;;;;;;5.47;3.05;;;27.00;99.90;;;;;;5064842;28;20036;-76
2023/06/24 11:50:03;;;;;;;7.10;2.28;;;27.60;99.90;;;;;;5061555;28;20043;-77
2023/06/24 11:52:39;;;;;;;6.15;2.83;;;27.30;99.90;;;;;;5070701;28;20051;-78
2023/06/24 11:55:21;;;;;;;6.10;2.20;;;27.30;99.90;;;;;;5058881;28;20040;-76
2023/06/24 11:57:51;;;;;;;3.05;2.05;;;27.30;99.90;;;;;;5060337;28;20498;-76
2023/06/24 12:00:19;;;;;;;5.05;3.10;;;27.10;99.90;;;;;;5056966;28;20068;-76
2023/06/24 12:02:45;;;;;;;6.20;2.78;;;27.10;99.90;;;;;;5055558;28;20048;-76
2023/06/24 12:05:10;;;;;;;8.13;3.10;;;27.30;99.90;;;;;;5056398;28;20037;-77
2023/06/24 12:07:36;;;;;;;5.63;2.70;;;27.10;99.90;;;;;;5063893;28;20032;-77
2023/06/24 12:10:02;;;;;;;4.15;2.85;;;29.10;99.90;;;;;;5040193;28;20143;-77
2023/06/24 12:12:27;;;;;;;5.47;2.25;;;27.30;99.90;;;;;;5057097;28;20048;-77
2023/06/24 12:14:54;;;;;;;4.75;2.35;;;27.00;99.90;;;;;;5052816;28;20044;-76
2023/06/24 12:17:19;;;;;;;5.72;3.00;;;28.10;99.90;;;;;;5067300;28;20574;-76
2023/06/24 12:19:46;;;;;;;5.00;2.53;;;27.30;99.90;;;;;;5058956;28;20128;-76
2023/06/24 12:22:12;;;;;;;4.00;2.63;;;27.10;99.90;;;;;;5057979;28;20052;-77
2023/06/24 12:24:37;;;;;;;4.05;2.80;;;27.20;99.90;;;;;;5052548;28;20052;-77
2023/06/24 12:27:03;;;;;;;7.35;2.55;;;27.20;99.90;;;;;;5035205;28;20048;-77
2023/06/24 12:29:29;;;;;;;4.13;2.30;;;27.40;99.90;;;;;;5053400;28;20042;-77
2023/06/24 12:31:54;;;;;;;5.95;2.83;;;28.00;99.90;;;;;;5055408;28;20033;-77
2023/06/24 12:34:20;;;;;;;4.80;2.88;;;28.70;99.90;;;;;;5031717;28;20402;-77
2023/06/24 12:36:46;;;;;;;5.35;2.63;;;27.10;99.90;;;;;;5062073;28;20051;-77
2023/06/24 12:39:11;;;;;;;5.88;2.28;;;26.80;99.90;;;;;;5044814;28;20041;-77
2023/06/24 12:41:37;;;;;;;6.30;2.45;;;28.60;99.90;;;;;;5058064;28;20044;-78
2023/06/24 12:44:03;;;;;;;5.47;2.33;;;27.20;99.90;;;;;;5042179;28;20041;-76
2023/06/24 12:46:28;;;;;;;6.30;2.80;;;26.80;99.90;;;;;;5053121;28;20055;-77
2023/06/24 12:48:54;;;;;;;3.17;2.20;;;26.40;99.90;;;;;;5045042;28;20040;-77
2023/06/24 12:51:20;;;;;;;4.53;2.50;;;26.40;99.90;;;;;;5059751;28;20417;-76
2023/06/24 12:53:46;;;;;;;4.05;1.77;;;28.00;99.90;;;;;;5058157;28;20036;-77
2023/06/24 12:56:11;;;;;;;5.82;2.63;;;26.60;99.90;;;;;;5050567;28;20246;-76
2023/06/24 12:58:37;;;;;;;4.45;2.25;;;26.90;99.90;;;;;;5040862;28;20051;-77
2023/06/24 13:01:02;;;;;;;5.18;2.50;;;28.90;99.90;;;;;;5060156;28;20059;-77
2023/06/24 13:03:28;;;;;;;6.00;2.53;;;28.30;99.90;;;;;;5057009;28;20082;-77
2023/06/24 13:05:54;;;;;;;6.05;2.20;;;28.80;99.90;;;;;;5070253;28;20032;-76
2023/06/24 13:08:19;;;;;;;3.42;2.40;;;27.10;99.90;;;;;;5060585;28;20040;-79
2023/06/24 13:10:45;;;;;;;3.28;2.25;;;27.30;99.90;;;;;;5054083;28;20040;-77